Time;durP1;ratioP1;P1;durP2;ratioP2;P2;SDS_P1;SDS_P2;PMS_P1;PMS_P2;Temp;Humidity;BMP_temperature;BMP_pressure;BME280_temperature;BME280_humidity;BME280_pressure;Samples;Min_cycle;Max_cycle;Signal;HPM_P1;HPM_P2
2022/09/21 00:01:51;;;;;;;0.88;0.60;;;21.70;89.00;;;;;;5142824;27;45392;-72
2022/09/21 00:04:18;;;;;;;0.40;0.40;;;21.70;88.70;;;;;;5143904;27;45376;-72
2022/09/21 00:06:45;;;;;;;0.35;0.35;;;21.70;88.50;;;;;;5132663;27;45409;-73
2022/09/21 00:09:12;;;;;;;1.80;0.40;;;21.70;88.50;;;;;;5137552;27;47323;-73
2022/09/21 00:11:39;;;;;;;0.63;0.50;;;21.70;88.60;;;;;;5138678;27;45279;-73
2022/09/21 00:14:09;;;;;;;0.90;0.52;;;21.70;88.40;;;;;;5142128;27;45396;-73
2022/09/21 00:16:36;;;;;;;3.40;0.60;;;21.70;88.70;;;;;;5134783;27;45465;-72
2022/09/21 00:19:05;;;;;;;1.45;0.45;;;21.70;88.60;;;;;;5138060;27;46559;-72
2022/09/21 00:21:34;;;;;;;0.90;0.52;;;21.70;89.70;;;;;;5123971;27;45723;-73
2022/09/21 00:24:01;;;;;;;0.82;0.60;;;21.70;88.60;;;;;;5141936;27;45263;-73
2022/09/21 00:26:28;;;;;;;1.10;0.70;;;21.70;88.50;;;;;;5129025;27;45398;-74
2022/09/21 00:28:58;;;;;;;0.73;0.63;;;21.70;88.50;;;;;;5143646;27;46568;-72
2022/09/21 00:31:25;;;;;;;0.70;0.50;;;21.70;88.40;;;;;;5133568;27;45485;-72
2022/09/21 00:33:52;;;;;;;0.60;0.60;;;21.70;88.40;;;;;;5132011;27;45479;-72
2022/09/21 00:36:22;;;;;;;0.95;0.68;;;21.70;88.30;;;;;;5136184;27;45455;-73
2022/09/21 00:38:50;;;;;;;2.25;0.60;;;21.70;88.20;;;;;;5138106;27;46067;-73
2022/09/21 00:41:17;;;;;;;1.27;0.70;;;21.70;88.10;;;;;;5138336;27;45495;-73
2022/09/21 00:43:47;;;;;;;0.88;0.60;;;21.70;87.80;;;;;;5143037;27;45497;-73
2022/09/21 00:46:20;;;;;;;1.33;0.70;;;21.70;87.90;;;;;;5143300;27;45295;-72
2022/09/21 00:48:46;;;;;;;0.90;0.80;;;21.70;88.10;;;;;;5140605;27;47930;-73
2022/09/21 00:51:13;;;;;;;0.52;0.50;;;21.70;88.60;;;;;;5137558;27;45440;-73
2022/09/21 00:53:42;;;;;;;1.25;0.70;;;21.70;87.70;;;;;;5136973;27;45473;-73
2022/09/21 00:56:09;;;;;;;0.95;0.63;;;21.70;87.60;;;;;;5144128;27;45399;-74
2022/09/21 00:58:42;;;;;;;0.90;0.60;;;21.70;87.70;;;;;;5142081;27;47201;-73
2022/09/21 01:01:11;;;;;;;0.88;0.60;;;21.70;87.70;;;;;;5143279;27;45621;-73
2022/09/21 01:03:41;;;;;;;0.93;0.50;;;21.70;87.60;;;;;;5135469;27;45334;-73
2022/09/21 01:06:07;;;;;;;2.38;0.98;;;21.70;87.70;;;;;;5143707;27;45421;-72
2022/09/21 01:08:36;;;;;;;1.10;0.70;;;21.70;87.50;;;;;;5139140;27;47711;-73
2022/09/21 01:11:27;;;;;;;1.17;0.60;;;21.70;87.60;;;;;;5134922;27;45353;-73
2022/09/21 01:14:11;;;;;;;1.08;0.63;;;21.70;87.60;;;;;;5135773;27;45389;-73
2022/09/21 01:16:44;;;;;;;0.57;0.50;;;21.70;87.30;;;;;;5129774;27;45262;-73
2022/09/21 01:19:27;;;;;;;1.27;0.50;;;21.70;87.30;;;;;;5131788;27;45440;-73
2022/09/21 01:22:06;;;;;;;1.50;0.60;;;21.70;87.20;;;;;;5138257;27;45347;-73
2022/09/21 01:24:51;;;;;;;0.98;0.52;;;21.70;87.40;;;;;;5131268;27;45352;-73
2022/09/21 01:27:40;;;;;;;2.25;0.60;;;21.70;87.30;;;;;;5140575;27;45323;-74
2022/09/21 01:30:11;;;;;;;0.80;0.40;;;21.70;87.10;;;;;;5137106;27;46638;-73
2022/09/21 01:32:44;;;;;;;0.50;0.43;;;21.70;87.00;;;;;;5131916;27;45880;-73
2022/09/21 01:35:14;;;;;;;1.02;0.57;;;21.70;87.00;;;;;;5138179;27;45524;-73
2022/09/21 01:37:45;;;;;;;1.23;0.60;;;21.70;87.00;;;;;;5141017;27;45557;-73
2022/09/21 01:40:17;;;;;;;1.48;0.70;;;21.70;86.80;;;;;;5133257;27;45409;-73
2022/09/21 01:42:46;;;;;;;0.55;0.50;;;21.70;86.90;;;;;;5136879;27;45562;-73
2022/09/21 01:45:16;;;;;;;1.20;0.63;;;21.70;86.90;;;;;;5139761;27;45423;-73
2022/09/21 01:47:46;;;;;;;0.93;0.55;;;21.70;86.80;;;;;;5144564;27;45436;-73
2022/09/21 01:50:16;;;;;;;0.93;0.52;;;21.70;86.80;;;;;;5139605;27;45361;-73
2022/09/21 01:52:48;;;;;;;1.48;0.68;;;21.70;86.60;;;;;;5137042;27;45395;-73
2022/09/21 01:55:20;;;;;;;2.28;0.70;;;21.70;86.90;;;;;;5137157;27;45635;-73
2022/09/21 01:57:55;;;;;;;0.70;0.50;;;21.70;86.90;;;;;;5138881;27;45354;-73
2022/09/21 02:00:24;;;;;;;1.20;0.70;;;21.60;86.70;;;;;;5135831;27;48516;-73
2022/09/21 02:02:57;;;;;;;2.70;0.60;;;21.70;86.80;;;;;;5138620;27;45388;-73
2022/09/21 02:05:27;;;;;;;3.08;0.50;;;21.70;86.60;;;;;;5135821;27;45491;-73
2022/09/21 02:07:54;;;;;;;0.70;0.68;;;21.70;86.60;;;;;;5137787;27;45519;-73
2022/09/21 02:10:23;;;;;;;1.10;0.60;;;21.70;86.50;;;;;;5142547;27;46672;-73
2022/09/21 02:12:53;;;;;;;0.65;0.60;;;21.70;86.30;;;;;;5139527;27;45479;-73
2022/09/21 02:15:24;;;;;;;0.65;0.50;;;21.70;86.70;;;;;;5140157;27;45402;-72
2022/09/21 02:18:04;;;;;;;1.35;0.60;;;21.70;86.30;;;;;;5139166;27;45509;-73
2022/09/21 02:20:35;;;;;;;0.82;0.52;;;21.60;86.10;;;;;;5136341;27;46354;-73
2022/09/21 02:23:08;;;;;;;1.13;0.60;;;21.60;86.00;;;;;;5132660;27;45321;-73
2022/09/21 02:25:44;;;;;;;1.55;0.50;;;21.60;85.50;;;;;;5141295;27;45316;-74
2022/09/21 02:28:22;;;;;;;1.35;0.60;;;21.60;85.20;;;;;;5136840;27;45261;-73
2022/09/21 02:30:56;;;;;;;0.77;0.50;;;21.60;85.20;;;;;;5142095;27;47926;-73
2022/09/21 02:33:28;;;;;;;1.98;0.70;;;21.60;84.70;;;;;;5148048;27;45420;-73
2022/09/21 02:36:02;;;;;;;1.63;0.60;;;21.60;84.80;;;;;;5134305;27;45598;-73
2022/09/21 02:38:35;;;;;;;1.13;0.60;;;21.60;84.70;;;;;;5129259;27;45450;-73
2022/09/21 02:41:07;;;;;;;0.70;0.57;;;21.60;84.60;;;;;;5146334;27;45317;-73
2022/09/21 02:43:39;;;;;;;1.20;0.70;;;21.60;84.00;;;;;;5144035;27;45493;-73
2022/09/21 02:46:14;;;;;;;0.57;0.57;;;21.60;84.10;;;;;;5136848;27;45274;-72
2022/09/21 02:48:47;;;;;;;1.02;0.57;;;21.60;84.10;;;;;;5139519;27;45604;-74
2022/09/21 02:51:17;;;;;;;1.35;0.60;;;21.60;84.10;;;;;;5138674;27;45428;-74
2022/09/21 02:53:46;;;;;;;1.50;0.57;;;21.50;84.30;;;;;;5139291;27;45280;-74
2022/09/21 02:56:14;;;;;;;1.17;0.68;;;21.60;83.90;;;;;;5135345;27;45308;-73
2022/09/21 02:58:46;;;;;;;0.63;0.57;;;21.60;84.00;;;;;;5143550;27;45343;-73
2022/09/21 03:01:15;;;;;;;0.63;0.60;;;21.60;83.70;;;;;;5133981;27;48698;-73
2022/09/21 03:03:43;;;;;;;0.90;0.80;;;21.60;83.60;;;;;;5139162;27;45338;-73
2022/09/21 03:06:10;;;;;;;0.63;0.45;;;21.60;83.50;;;;;;5136002;27;45366;-73
2022/09/21 03:08:37;;;;;;;1.65;0.60;;;21.60;83.60;;;;;;5130184;27;45380;-73
2022/09/21 03:11:04;;;;;;;0.77;0.60;;;21.60;83.60;;;;;;5135266;27;46600;-73
2022/09/21 03:13:31;;;;;;;1.05;0.50;;;21.60;83.20;;;;;;5135265;27;45383;-73
2022/09/21 03:16:03;;;;;;;3.75;0.57;;;21.50;83.00;;;;;;5142962;27;45413;-72
2022/09/21 03:18:31;;;;;;;0.75;0.50;;;21.60;82.90;;;;;;5139729;27;45315;-72
2022/09/21 03:20:59;;;;;;;1.13;0.65;;;21.60;83.10;;;;;;5136750;27;46625;-73
2022/09/21 03:23:26;;;;;;;1.02;0.50;;;21.60;82.80;;;;;;5138595;27;45673;-72
2022/09/21 03:25:53;;;;;;;0.90;0.50;;;21.50;82.50;;;;;;5141092;27;45403;-73
2022/09/21 03:28:21;;;;;;;1.50;0.40;;;21.50;82.60;;;;;;5134149;27;45481;-73
2022/09/21 03:30:49;;;;;;;3.10;0.65;;;21.50;82.60;;;;;;5140411;27;46433;-74
2022/09/21 03:33:15;;;;;;;0.70;0.60;;;21.50;82.90;;;;;;5137551;27;45663;-73
2022/09/21 03:35:42;;;;;;;0.98;0.63;;;21.50;82.50;;;;;;5125830;27;45378;-72
2022/09/21 03:38:11;;;;;;;1.63;0.50;;;21.50;82.30;;;;;;5136047;27;45610;-72
2022/09/21 03:40:39;;;;;;;1.42;0.70;;;21.50;82.80;;;;;;5144792;27;46030;-74
2022/09/21 03:43:06;;;;;;;0.52;0.50;;;21.50;82.30;;;;;;5144310;27;45347;-73
2022/09/21 03:45:33;;;;;;;2.90;0.52;;;21.50;82.60;;;;;;5140570;27;45435;-73
2022/09/21 03:48:01;;;;;;;1.00;0.50;;;21.60;82.80;;;;;;5134606;27;45487;-73
2022/09/21 03:50:30;;;;;;;1.23;0.65;;;21.50;82.40;;;;;;5133423;27;46468;-73
2022/09/21 03:52:57;;;;;;;1.65;0.80;;;21.50;82.50;;;;;;5133418;27;45731;-73
2022/09/21 03:55:26;;;;;;;1.55;0.65;;;21.50;82.10;;;;;;5144219;27;45354;-73
2022/09/21 03:57:53;;;;;;;1.92;0.52;;;21.50;80.70;;;;;;5141961;27;45450;-73
2022/09/21 04:00:20;;;;;;;1.30;0.35;;;21.50;80.00;;;;;;5142208;27;46635;-72
2022/09/21 04:02:47;;;;;;;0.73;0.50;;;21.50;80.50;;;;;;5136054;27;45457;-73
2022/09/21 04:05:15;;;;;;;0.95;0.73;;;21.60;79.60;;;;;;5143299;27;45246;-73
2022/09/21 04:07:44;;;;;;;0.80;0.60;;;21.50;74.90;;;;;;5146485;27;45527;-72
2022/09/21 04:10:13;;;;;;;1.02;0.70;;;21.50;73.60;;;;;;5137545;27;47577;-73
2022/09/21 04:12:42;;;;;;;1.00;0.60;;;21.50;73.60;;;;;;5135326;27;45342;-72
2022/09/21 04:15:10;;;;;;;2.10;0.80;;;21.50;73.40;;;;;;5145256;27;45414;-74
2022/09/21 04:17:37;;;;;;;0.90;0.50;;;21.50;74.70;;;;;;5138505;27;45623;-73
2022/09/21 04:20:05;;;;;;;1.73;0.40;;;21.50;75.70;;;;;;5144659;27;47510;-73
2022/09/21 04:22:32;;;;;;;0.85;0.60;;;21.40;76.20;;;;;;5139791;27;45384;-73
2022/09/21 04:25:00;;;;;;;0.90;0.73;;;21.40;77.40;;;;;;5140894;27;45410;-73
2022/09/21 04:27:27;;;;;;;1.98;0.73;;;21.40;77.10;;;;;;5137598;27;45453;-73
2022/09/21 04:29:55;;;;;;;2.13;0.73;;;21.40;77.30;;;;;;5128331;27;47865;-73
2022/09/21 04:32:22;;;;;;;1.20;0.70;;;21.40;77.50;;;;;;5139797;27;45306;-74
2022/09/21 04:34:48;;;;;;;1.70;0.80;;;21.50;78.60;;;;;;5139627;27;45501;-72
2022/09/21 04:37:15;;;;;;;1.73;0.70;;;21.50;78.90;;;;;;5144187;27;45456;-73
2022/09/21 04:39:42;;;;;;;1.73;0.70;;;21.40;78.60;;;;;;5144314;27;45362;-73
2022/09/21 04:42:09;;;;;;;1.85;0.80;;;21.50;78.90;;;;;;5140413;27;45272;-73
2022/09/21 04:44:36;;;;;;;1.38;0.60;;;21.50;79.10;;;;;;5145352;27;45376;-72
2022/09/21 04:47:04;;;;;;;3.00;0.60;;;21.50;79.30;;;;;;5136541;27;45587;-73
2022/09/21 04:49:31;;;;;;;1.17;0.85;;;21.50;78.90;;;;;;5141779;27;45325;-72
2022/09/21 04:51:58;;;;;;;1.58;0.50;;;21.50;78.70;;;;;;5133791;27;45314;-72
2022/09/21 04:54:25;;;;;;;1.40;0.75;;;21.50;78.70;;;;;;5145704;27;45511;-72
2022/09/21 04:56:51;;;;;;;0.93;0.65;;;21.50;78.90;;;;;;5130104;27;45304;-72
2022/09/21 04:59:18;;;;;;;1.20;0.80;;;21.50;78.70;;;;;;5140257;27;47536;-74
2022/09/21 05:01:45;;;;;;;2.05;0.60;;;21.50;78.70;;;;;;5133706;27;45324;-72
2022/09/21 05:04:14;;;;;;;1.85;0.60;;;21.50;78.80;;;;;;5138255;27;45301;-73
2022/09/21 05:06:41;;;;;;;0.98;0.60;;;21.50;78.90;;;;;;5140757;27;45567;-73
2022/09/21 05:11:52;;;;;;;2.22;0.82;;;21.50;79.60;;;;;;5141355;27;45530;-72
2022/09/21 05:14:19;;;;;;;0.70;0.52;;;21.50;79.10;;;;;;5145427;27;45551;-72
2022/09/21 05:16:48;;;;;;;1.85;0.70;;;21.50;79.50;;;;;;5143282;27;45291;-72
2022/09/21 05:19:16;;;;;;;1.02;0.60;;;21.50;79.50;;;;;;5142184;27;48548;-73
2022/09/21 05:21:43;;;;;;;1.83;0.70;;;21.50;79.20;;;;;;5126649;27;45362;-72
2022/09/21 05:24:10;;;;;;;2.05;0.45;;;21.50;79.10;;;;;;5143211;27;45304;-72
2022/09/21 05:26:37;;;;;;;1.38;0.77;;;21.50;79.10;;;;;;5136358;27;45479;-73
2022/09/21 05:29:05;;;;;;;0.60;0.60;;;21.50;79.00;;;;;;5142663;27;46059;-73
2022/09/21 05:31:45;;;;;;;0.52;0.50;;;21.50;79.20;;;;;;5144293;27;45352;-73
2022/09/21 05:34:30;;;;;;;0.57;0.55;;;21.50;79.00;;;;;;5143608;27;45370;-73
2022/09/21 05:37:02;;;;;;;1.15;0.52;;;21.50;79.10;;;;;;5138608;27;45347;-73
2022/09/21 05:39:29;;;;;;;1.17;0.70;;;21.50;78.90;;;;;;5140019;27;46489;-73
2022/09/21 05:41:56;;;;;;;1.05;0.85;;;21.50;79.20;;;;;;5141374;27;45422;-73
2022/09/21 05:44:24;;;;;;;1.30;0.60;;;21.50;79.10;;;;;;5144254;27;45421;-73
2022/09/21 05:46:58;;;;;;;1.15;0.65;;;21.50;78.70;;;;;;5141473;27;45434;-72
2022/09/21 05:49:36;;;;;;;1.77;0.50;;;21.50;79.10;;;;;;5142906;27;47098;-73
2022/09/21 05:52:12;;;;;;;1.83;0.60;;;21.50;78.70;;;;;;5141399;27;45409;-73
2022/09/21 05:54:52;;;;;;;0.95;0.50;;;21.60;78.90;;;;;;5144094;27;45498;-73
2022/09/21 05:57:28;;;;;;;0.50;0.50;;;21.50;79.40;;;;;;5141020;27;45529;-73
2022/09/21 06:00:03;;;;;;;2.65;0.60;;;21.50;79.50;;;;;;5138025;27;45367;-72
2022/09/21 06:02:54;;;;;;;0.80;0.73;;;21.50;79.20;;;;;;5139674;27;46278;-73
2022/09/21 06:05:23;;;;;;;1.63;0.50;;;21.50;79.50;;;;;;5137938;27;45298;-73
2022/09/21 06:07:50;;;;;;;3.15;0.70;;;21.50;79.50;;;;;;5140758;27;45368;-73
2022/09/21 06:10:17;;;;;;;1.45;0.50;;;21.50;79.50;;;;;;5146981;27;46559;-73
2022/09/21 06:12:44;;;;;;;0.90;0.60;;;21.50;79.50;;;;;;5146680;27;46258;-74
2022/09/21 06:15:13;;;;;;;0.70;0.70;;;21.60;79.60;;;;;;5147195;27;45290;-72
2022/09/21 06:17:40;;;;;;;1.42;0.85;;;21.50;79.60;;;;;;5140939;27;45507;-73
2022/09/21 06:20:08;;;;;;;1.20;0.73;;;21.50;79.50;;;;;;5145374;27;46515;-73
2022/09/21 06:22:36;;;;;;;0.95;0.50;;;21.50;79.60;;;;;;5146713;27;45326;-70
2022/09/21 06:25:03;;;;;;;4.50;1.35;;;21.50;79.50;;;;;;5149997;27;45253;-74
2022/09/21 06:27:30;;;;;;;3.22;0.82;;;21.60;79.50;;;;;;5150561;27;45143;-74
2022/09/21 06:29:57;;;;;;;4.10;0.98;;;21.60;79.60;;;;;;5150161;27;47312;-74
2022/09/21 06:32:24;;;;;;;1.17;0.80;;;21.50;79.40;;;;;;5149856;27;45244;-74
2022/09/21 06:34:51;;;;;;;1.42;0.90;;;21.50;78.90;;;;;;5150349;27;45179;-74
2022/09/21 06:37:18;;;;;;;2.92;0.80;;;21.50;79.20;;;;;;5149704;27;45644;-74
2022/09/21 06:39:46;;;;;;;2.88;0.90;;;21.50;79.00;;;;;;5149748;27;47981;-74
2022/09/21 06:42:13;;;;;;;1.42;0.88;;;21.50;78.50;;;;;;5146267;27;45785;-74
2022/09/21 06:44:39;;;;;;;2.53;0.73;;;21.50;79.20;;;;;;5129036;27;45365;-74
2022/09/21 06:47:06;;;;;;;3.08;1.00;;;21.50;79.40;;;;;;5147311;27;45108;-74
2022/09/21 06:49:40;;;;;;;2.72;0.80;;;21.50;78.60;;;;;;5150082;27;45133;-73
2022/09/21 06:52:07;;;;;;;1.30;0.93;;;21.50;78.60;;;;;;5149947;27;45273;-74
2022/09/21 06:54:34;;;;;;;1.25;0.73;;;21.50;78.80;;;;;;5150124;27;45210;-74
2022/09/21 06:57:02;;;;;;;5.65;0.80;;;21.50;78.90;;;;;;5150040;27;45430;-74
2022/09/21 06:59:28;;;;;;;2.30;0.65;;;21.50;79.40;;;;;;5149370;27;47303;-75
2022/09/21 07:01:57;;;;;;;0.95;0.70;;;21.50;79.50;;;;;;5148951;27;45357;-74
2022/09/21 07:04:24;;;;;;;1.20;0.75;;;21.50;79.50;;;;;;5149891;27;45304;-74
2022/09/21 07:06:51;;;;;;;2.55;0.93;;;21.50;79.60;;;;;;5149350;27;45596;-74
2022/09/21 07:09:18;;;;;;;1.23;0.70;;;21.50;79.50;;;;;;5148826;27;47097;-74
2022/09/21 07:11:45;;;;;;;2.08;0.90;;;21.50;79.10;;;;;;5149547;27;45365;-74
2022/09/21 07:14:14;;;;;;;1.70;1.00;;;21.60;79.40;;;;;;5149223;27;45459;-74
2022/09/21 07:16:42;;;;;;;2.42;1.10;;;21.50;79.50;;;;;;5149740;27;45521;-74
2022/09/21 07:19:09;;;;;;;2.90;0.90;;;21.60;79.60;;;;;;5149123;27;46534;-74
2022/09/21 07:21:35;;;;;;;1.70;0.90;;;21.50;79.50;;;;;;5149409;27;45213;-74
2022/09/21 07:24:02;;;;;;;3.13;0.73;;;21.60;79.20;;;;;;5149189;27;45272;-74
2022/09/21 07:26:29;;;;;;;1.40;0.80;;;21.50;78.90;;;;;;5149445;27;45338;-74
2022/09/21 07:28:56;;;;;;;2.17;1.00;;;21.60;78.80;;;;;;5149010;27;47992;-74
2022/09/21 07:31:24;;;;;;;1.58;0.98;;;21.50;78.70;;;;;;5149231;27;45346;-74
2022/09/21 07:33:57;;;;;;;1.55;0.95;;;21.50;78.60;;;;;;5149490;27;45454;-74
2022/09/21 07:36:24;;;;;;;2.15;1.15;;;21.50;78.30;;;;;;5149566;27;45521;-74
2022/09/21 07:38:52;;;;;;;2.55;1.20;;;21.60;77.80;;;;;;5149123;27;46842;-74
2022/09/21 07:41:19;;;;;;;1.95;0.90;;;21.60;77.80;;;;;;5149416;27;45345;-74
2022/09/21 07:43:46;;;;;;;1.58;0.90;;;21.60;77.70;;;;;;5148354;27;45398;-74
2022/09/21 07:46:14;;;;;;;1.70;1.13;;;21.60;77.90;;;;;;5148824;27;45554;-74
2022/09/21 07:48:42;;;;;;;3.25;1.10;;;21.60;78.30;;;;;;5144752;27;45735;-73
2022/09/21 07:51:11;;;;;;;2.33;1.20;;;21.60;78.90;;;;;;5148741;27;45242;-74
2022/09/21 07:53:40;;;;;;;1.88;0.95;;;21.60;79.40;;;;;;5148521;27;45478;-74
2022/09/21 07:56:09;;;;;;;1.98;1.15;;;21.60;79.60;;;;;;5148858;27;45474;-74
2022/09/21 08:01:21;;;;;;;2.17;0.70;;;21.50;79.50;;;;;;5147865;27;45219;-73
2022/09/21 08:03:57;;;;;;;2.63;1.05;;;21.60;80.70;;;;;;5143622;27;45371;-74
2022/09/21 08:06:26;;;;;;;1.63;1.17;;;21.60;79.60;;;;;;5137834;27;45389;-74
2022/09/21 08:08:53;;;;;;;1.42;0.93;;;21.60;79.60;;;;;;5148154;27;46600;-75
2022/09/21 08:11:22;;;;;;;3.13;1.10;;;21.60;79.60;;;;;;5147789;27;45343;-74
2022/09/21 08:13:49;;;;;;;2.25;0.90;;;21.60;79.60;;;;;;5148692;27;45285;-74
2022/09/21 08:16:15;;;;;;;1.42;1.10;;;21.60;79.60;;;;;;5148959;27;45216;-74
2022/09/21 08:19:02;;;;;;;1.27;1.00;;;21.60;79.60;;;;;;5148663;27;47025;-74
2022/09/21 08:21:28;;;;;;;3.28;1.40;;;21.60;79.10;;;;;;5147886;27;45284;-74
2022/09/21 08:23:55;;;;;;;1.08;0.90;;;21.60;79.10;;;;;;5148659;27;45100;-74
2022/09/21 08:26:23;;;;;;;1.13;0.88;;;21.60;79.10;;;;;;5148642;27;45579;-74
2022/09/21 08:28:53;;;;;;;1.00;0.85;;;21.60;78.90;;;;;;5148402;27;46281;-74
2022/09/21 08:31:22;;;;;;;2.83;1.02;;;21.60;78.80;;;;;;5148179;27;45271;-74
2022/09/21 08:33:50;;;;;;;1.48;1.00;;;21.60;78.90;;;;;;5140862;27;45307;-73
2022/09/21 08:36:19;;;;;;;0.85;0.80;;;21.60;78.80;;;;;;5148252;27;45472;-74
2022/09/21 08:38:46;;;;;;;0.82;0.70;;;21.60;79.00;;;;;;5147446;27;46714;-74
2022/09/21 08:41:18;;;;;;;1.33;0.98;;;21.60;79.30;;;;;;5144774;27;46121;-73
2022/09/21 08:43:50;;;;;;;9.48;1.58;;;21.70;79.80;;;;;;5144136;27;45377;-73
2022/09/21 08:46:19;;;;;;;2.28;1.10;;;21.70;81.80;;;;;;5141311;27;45308;-73
2022/09/21 08:48:50;;;;;;;3.65;0.98;;;21.70;81.00;;;;;;5145116;27;46626;-74
2022/09/21 08:51:24;;;;;;;3.20;0.60;;;21.70;80.30;;;;;;5146769;27;45228;-73
2022/09/21 08:53:57;;;;;;;2.78;1.08;;;21.70;80.00;;;;;;5142985;27;45259;-74
2022/09/21 08:56:26;;;;;;;4.85;1.20;;;21.70;81.00;;;;;;5147943;27;45402;-74
2022/09/21 08:58:53;;;;;;;1.20;0.90;;;21.70;80.50;;;;;;5147414;27;48952;-74
2022/09/21 09:01:44;;;;;;;1.40;0.90;;;21.70;80.00;;;;;;5146910;27;45399;-74
2022/09/21 09:04:26;;;;;;;2.97;0.93;;;21.70;80.00;;;;;;5147776;27;45247;-74
2022/09/21 09:07:07;;;;;;;2.13;0.85;;;21.70;80.20;;;;;;5147819;27;45325;-73
2022/09/21 09:09:56;;;;;;;2.58;0.90;;;21.70;80.40;;;;;;5147584;27;46970;-74
2022/09/21 09:12:34;;;;;;;1.80;0.68;;;21.70;80.30;;;;;;5143898;27;45296;-70
2022/09/21 09:15:23;;;;;;;3.50;0.90;;;21.70;80.50;;;;;;5144821;27;45480;-73
2022/09/21 09:17:56;;;;;;;5.60;0.88;;;21.70;81.20;;;;;;5144534;27;45425;-73
2022/09/21 09:20:29;;;;;;;4.20;0.80;;;21.70;80.80;;;;;;5139620;27;45436;-74
2022/09/21 09:23:06;;;;;;;2.90;0.90;;;21.70;80.90;;;;;;5139032;27;45471;-73
2022/09/21 09:25:37;;;;;;;1.50;0.70;;;21.70;80.80;;;;;;5137960;27;45310;-73
2022/09/21 09:28:17;;;;;;;3.20;1.17;;;21.70;80.90;;;;;;5136014;27;45571;-73
2022/09/21 09:30:44;;;;;;;0.88;0.70;;;21.70;81.00;;;;;;5136180;27;46469;-73
2022/09/21 09:33:19;;;;;;;1.08;0.60;;;21.70;81.00;;;;;;5143664;27;45578;-73
2022/09/21 09:35:50;;;;;;;0.70;0.60;;;21.70;81.00;;;;;;5149102;27;45248;-73
2022/09/21 09:38:25;;;;;;;5.97;0.90;;;21.70;81.00;;;;;;5148256;27;45569;-73
2022/09/21 09:41:24;;;;;;;5.32;0.93;;;21.70;81.00;;;;;;5142051;27;46986;-74
2022/09/21 09:44:04;;;;;;;1.70;0.75;;;21.70;81.20;;;;;;5124418;27;45388;-74
2022/09/21 09:46:36;;;;;;;0.90;0.52;;;21.70;81.30;;;;;;5128125;27;45442;-74
2022/09/21 09:49:15;;;;;;;2.05;0.60;;;21.70;81.30;;;;;;5146465;27;45363;-74
2022/09/21 09:51:42;;;;;;;0.90;0.50;;;21.70;81.40;;;;;;5149881;27;45314;-73
2022/09/21 09:54:14;;;;;;;1.17;0.60;;;21.70;81.50;;;;;;5148892;27;45337;-73
2022/09/21 09:56:41;;;;;;;2.15;0.50;;;21.70;81.50;;;;;;5147354;27;45463;-73
2022/09/21 09:59:14;;;;;;;1.25;0.70;;;21.70;81.50;;;;;;5138725;27;45602;-74
2022/09/21 10:01:42;;;;;;;1.63;0.70;;;21.80;81.40;;;;;;5143560;27;45473;-73
2022/09/21 10:04:10;;;;;;;1.60;0.80;;;21.80;81.10;;;;;;5150053;27;45272;-73
2022/09/21 10:06:38;;;;;;;2.25;0.50;;;21.80;81.00;;;;;;5148084;27;45416;-74
2022/09/21 10:09:23;;;;;;;0.70;0.60;;;21.80;80.90;;;;;;5142600;27;45379;-73
2022/09/21 10:11:51;;;;;;;0.70;0.60;;;21.80;80.70;;;;;;5146369;27;45485;-73
2022/09/21 10:14:22;;;;;;;1.02;0.40;;;21.80;81.70;;;;;;5131909;27;45748;-74
2022/09/21 10:16:51;;;;;;;1.65;0.57;;;21.80;80.60;;;;;;5142687;27;45437;-72
2022/09/21 10:19:22;;;;;;;0.77;0.60;;;21.80;80.40;;;;;;5138499;27;45339;-74
2022/09/21 10:21:56;;;;;;;1.05;0.60;;;21.80;81.60;;;;;;5147354;27;47959;-74
2022/09/21 10:24:26;;;;;;;1.42;0.50;;;21.80;80.40;;;;;;5147646;27;45361;-74
2022/09/21 10:26:56;;;;;;;2.25;0.60;;;21.80;80.50;;;;;;5148374;27;45343;-73
2022/09/21 10:29:40;;;;;;;1.75;0.70;;;21.80;80.30;;;;;;5147896;27;45266;-73
2022/09/21 10:32:20;;;;;;;2.10;0.60;;;21.80;80.30;;;;;;5136690;27;47371;-74
2022/09/21 10:35:13;;;;;;;1.42;0.50;;;21.80;80.00;;;;;;5132561;27;45295;-74
2022/09/21 10:37:42;;;;;;;1.13;0.40;;;21.80;80.40;;;;;;5145564;27;45299;-74
2022/09/21 10:40:25;;;;;;;1.30;0.60;;;21.80;80.10;;;;;;5133954;27;45286;-73
2022/09/21 10:42:55;;;;;;;1.08;0.52;;;21.80;80.10;;;;;;5145549;27;46539;-74
2022/09/21 10:45:24;;;;;;;0.85;0.60;;;21.80;80.20;;;;;;5139793;27;45259;-74
2022/09/21 10:47:52;;;;;;;1.35;0.60;;;21.80;80.40;;;;;;5140119;27;45375;-74
2022/09/21 10:50:25;;;;;;;1.15;0.57;;;21.80;80.50;;;;;;5138616;27;45375;-73
2022/09/21 10:52:58;;;;;;;0.60;0.40;;;21.80;80.30;;;;;;5144469;27;46510;-74
2022/09/21 10:55:28;;;;;;;0.50;0.45;;;21.80;80.20;;;;;;5138219;27;45453;-74
2022/09/21 10:57:57;;;;;;;1.50;0.52;;;21.80;79.80;;;;;;5144014;27;45334;-74
2022/09/21 11:00:34;;;;;;;1.92;0.68;;;21.80;79.80;;;;;;5142749;27;45499;-74
2022/09/21 11:03:03;;;;;;;0.73;0.45;;;21.80;79.80;;;;;;5145150;27;48029;-74
2022/09/21 11:05:33;;;;;;;1.42;0.45;;;21.80;79.80;;;;;;5139548;27;45379;-74
2022/09/21 11:08:05;;;;;;;1.02;0.55;;;21.80;79.80;;;;;;5138065;27;45463;-74
2022/09/21 11:10:43;;;;;;;1.10;0.45;;;21.70;79.70;;;;;;5139356;27;45544;-73
2022/09/21 11:13:23;;;;;;;0.30;0.30;;;21.80;79.80;;;;;;5143910;27;47620;-73
2022/09/21 11:15:56;;;;;;;0.85;0.40;;;21.70;79.80;;;;;;5145246;27;45460;-73
2022/09/21 11:18:34;;;;;;;0.40;0.30;;;21.80;79.80;;;;;;5133729;27;45260;-73
2022/09/21 11:21:09;;;;;;;1.40;0.57;;;21.80;79.80;;;;;;5134746;27;45482;-73
2022/09/21 11:23:52;;;;;;;1.75;0.75;;;21.80;79.80;;;;;;5129691;27;48229;-73
2022/09/21 11:26:27;;;;;;;0.75;0.50;;;21.80;79.80;;;;;;5136805;27;45908;-73
2022/09/21 11:29:02;;;;;;;1.52;0.38;;;21.80;79.80;;;;;;5134677;27;45373;-73
2022/09/21 11:31:43;;;;;;;0.93;0.40;;;21.80;79.80;;;;;;5128951;27;45339;-73
2022/09/21 11:34:30;;;;;;;0.47;0.40;;;21.80;79.80;;;;;;5139996;27;46364;-74
2022/09/21 11:37:09;;;;;;;0.30;0.30;;;21.80;79.80;;;;;;5142406;27;45603;-74
2022/09/21 11:39:48;;;;;;;1.42;0.73;;;21.80;79.80;;;;;;5140332;27;45324;-74
2022/09/21 11:42:28;;;;;;;0.40;0.30;;;21.80;79.90;;;;;;5133141;27;45314;-73
2022/09/21 11:44:59;;;;;;;0.30;0.20;;;21.80;79.80;;;;;;5136113;27;46828;-73
2022/09/21 11:47:44;;;;;;;0.60;0.30;;;21.80;79.80;;;;;;5132998;27;45703;-74
2022/09/21 11:50:32;;;;;;;1.73;0.40;;;21.80;79.80;;;;;;5143555;27;45465;-74
2022/09/21 11:53:13;;;;;;;1.15;0.20;;;21.80;79.80;;;;;;5146520;27;45567;-73
2022/09/21 11:56:00;;;;;;;0.57;0.30;;;21.80;79.80;;;;;;5133893;27;45407;-74
2022/09/21 11:58:33;;;;;;;0.50;0.30;;;21.80;79.80;;;;;;5140519;27;45289;-74
2022/09/21 12:01:12;;;;;;;0.47;0.38;;;21.80;79.80;;;;;;5147036;27;45334;-73
2022/09/21 12:04:02;;;;;;;0.40;0.38;;;21.80;79.80;;;;;;5144678;27;45442;-74
2022/09/21 12:06:43;;;;;;;1.58;0.30;;;21.80;79.80;;;;;;5141949;27;46235;-74
2022/09/21 12:09:40;;;;;;;1.45;0.35;;;21.80;79.80;;;;;;5146695;27;45409;-73
2022/09/21 12:12:13;;;;;;;0.88;0.47;;;21.80;79.80;;;;;;5141878;27;45305;-73
2022/09/21 12:14:52;;;;;;;0.38;0.30;;;21.80;80.80;;;;;;5133646;27;45435;-74
2022/09/21 12:17:30;;;;;;;0.30;0.28;;;21.80;79.80;;;;;;5144912;27;47850;-73
2022/09/21 12:20:03;;;;;;;0.40;0.30;;;21.80;80.80;;;;;;5130099;27;45372;-74
2022/09/21 12:22:33;;;;;;;0.60;0.30;;;21.80;79.90;;;;;;5146448;27;45269;-74
2022/09/21 12:25:06;;;;;;;0.55;0.40;;;21.80;79.80;;;;;;5129554;27;45349;-74
2022/09/21 12:27:36;;;;;;;1.55;0.30;;;21.80;79.80;;;;;;5129000;27;46267;-73
2022/09/21 12:30:12;;;;;;;1.27;0.50;;;21.80;79.80;;;;;;5131202;27;45320;-73
2022/09/21 12:32:48;;;;;;;0.30;0.30;;;21.80;80.80;;;;;;5129467;27;45290;-73
2022/09/21 12:35:19;;;;;;;0.38;0.30;;;21.80;79.90;;;;;;5139698;27;45425;-73
2022/09/21 12:37:49;;;;;;;0.47;0.40;;;21.80;80.80;;;;;;5137534;27;45484;-74
2022/09/21 12:40:23;;;;;;;0.45;0.30;;;21.80;79.80;;;;;;5124499;27;45408;-73
2022/09/21 12:42:56;;;;;;;0.95;0.30;;;21.80;79.80;;;;;;5140397;27;45357;-73
2022/09/21 12:45:28;;;;;;;0.60;0.22;;;21.80;79.80;;;;;;5141248;27;45258;-73
2022/09/21 12:47:59;;;;;;;0.80;0.30;;;21.80;79.80;;;;;;5139158;27;46593;-74
2022/09/21 12:50:32;;;;;;;1.55;0.30;;;21.80;79.90;;;;;;5142574;27;45989;-74
2022/09/21 12:53:01;;;;;;;0.32;0.20;;;21.80;79.80;;;;;;5145023;27;45320;-73
2022/09/21 12:55:44;;;;;;;0.55;0.30;;;21.80;79.80;;;;;;5138256;27;45458;-74
2022/09/21 12:58:23;;;;;;;0.93;0.30;;;21.80;79.80;;;;;;5142405;27;48514;-74
2022/09/21 13:00:59;;;;;;;0.35;0.20;;;21.70;79.70;;;;;;5141508;27;45590;-73
2022/09/21 13:03:32;;;;;;;0.20;0.10;;;21.80;79.80;;;;;;5142909;27;45291;-73
2022/09/21 13:06:22;;;;;;;2.80;0.30;;;21.80;79.80;;;;;;5133459;27;45611;-73
2022/09/21 13:08:50;;;;;;;0.35;0.20;;;21.80;79.80;;;;;;5138609;27;48402;-73
2022/09/21 13:11:20;;;;;;;0.38;0.20;;;21.80;79.80;;;;;;5134202;27;45261;-73
2022/09/21 13:13:50;;;;;;;0.25;0.20;;;21.80;79.90;;;;;;5132051;27;45264;-74
2022/09/21 13:16:26;;;;;;;0.35;0.28;;;21.80;79.80;;;;;;5137793;27;45479;-74